Time;durP1;ratioP1;P1;durP2;ratioP2;P2;SDS_P1;SDS_P2;PMS_P1;PMS_P2;Temp;Humidity;BMP_temperature;BMP_pressure;BME280_temperature;BME280_humidity;BME280_pressure;Samples;Min_cycle;Max_cycle;Signal;HPM_P1;HPM_P2
2021/03/12 00:00:19;;;;;;;;;;;;;;;3.17;100.00;95140.22;1027040;28;19910;-66
2021/03/12 00:00:49;;;;;;;;;;;;;;;3.17;100.00;95141.00;1026099;28;19910;-66
2021/03/12 00:01:20;;;;;;;;;;;;;;;3.17;100.00;95147.97;1022984;29;20443;-66
2021/03/12 00:01:50;;;;;;;;;;;;;;;3.17;100.00;95151.34;1023176;28;19910;-65
2021/03/12 00:02:20;;;;;;;;;;;;;;;3.17;100.00;95150.56;1023129;29;20439;-67
2021/03/12 00:02:51;;;;;;;;;;;;;;;3.16;100.00;95141.22;1022823;28;19918;-66
2021/03/12 00:03:23;;;;;;;;;;;;;;;3.16;100.00;95138.66;1022907;29;19953;-65
2021/03/12 00:03:54;;;;;;;;;;;;;;;3.18;100.00;95134.00;1023913;28;20300;-65
2021/03/12 00:04:24;;;;;;;;;;;;;;;3.17;100.00;95130.63;1023286;28;19914;-67
2021/03/12 00:04:54;;;;;;;;;;;;;;;3.18;100.00;95132.19;1027055;28;20326;-66
2021/03/12 00:05:24;;;;;;;;;;;;;;;3.19;100.00;95136.38;1019168;29;19982;-67
2021/03/12 00:05:56;;;;;;;;;;;;;;;3.19;100.00;95135.59;1015265;29;19915;-66
2021/03/12 00:06:26;;;;;;;;;;;;;;;3.23;100.00;95139.28;1023472;29;20577;-67
2021/03/12 00:06:57;;;;;;;;;;;;;;;3.22;100.00;95130.72;1019257;29;19915;-67
2021/03/12 00:07:27;;;;;;;;;;;;;;;3.24;100.00;95143.44;1023684;28;20318;-66
2021/03/12 00:07:57;;;;;;;;;;;;;;;3.27;100.00;95143.00;1027562;28;19914;-67
2021/03/12 00:08:29;;;;;;;;;;;;;;;3.24;100.00;95144.22;1029264;28;19980;-66
2021/03/12 00:08:59;;;;;;;;;;;;;;;3.22;100.00;95143.69;1031519;28;20621;-67
2021/03/12 00:09:29;;;;;;;;;;;;;;;3.22;100.00;95148.88;1027126;28;19925;-67
2021/03/12 00:10:00;;;;;;;;;;;;;;;3.26;100.00;95149.19;1027256;28;19915;-67
2021/03/12 00:10:30;;;;;;;;;;;;;;;3.24;100.00;95148.63;1026811;28;19961;-66
2021/03/12 00:11:00;;;;;;;;;;;;;;;3.25;100.00;95147.59;1030440;28;19914;-67
2021/03/12 00:11:31;;;;;;;;;;;;;;;3.25;100.00;95140.66;1027478;28;19964;-66
2021/03/12 00:12:01;;;;;;;;;;;;;;;3.29;100.00;95146.94;1030362;28;20264;-66
2021/03/12 00:12:31;;;;;;;;;;;;;;;3.34;100.00;95140.25;1027167;28;19906;-67
2021/03/12 00:13:02;;;;;;;;;;;;;;;3.35;100.00;95137.41;1030648;28;20490;-67
2021/03/12 00:13:32;;;;;;;;;;;;;;;3.33;100.00;95138.69;1028094;28;20190;-65
2021/03/12 00:14:02;;;;;;;;;;;;;;;3.32;100.00;95137.91;1027143;28;19914;-68
2021/03/12 00:14:33;;;;;;;;;;;;;;;3.33;100.00;95144.66;1033378;28;19957;-66
2021/03/12 00:15:07;;;;;;;;;;;;;;;3.33;100.00;95143.88;1031168;28;20126;-67
2021/03/12 00:15:38;;;;;;;;;;;;;;;3.33;100.00;95134.28;1023074;29;20300;-66
2021/03/12 00:16:08;;;;;;;;;;;;;;;3.34;100.00;95135.84;1025016;28;19921;-65
2021/03/12 00:16:38;;;;;;;;;;;;;;;3.33;100.00;95134.28;1031382;28;20303;-66
2021/03/12 00:17:09;;;;;;;;;;;;;;;3.33;100.00;95134.28;1028003;28;19914;-67
2021/03/12 00:17:39;;;;;;;;;;;;;;;3.32;100.00;95130.13;1027372;28;20312;-69
2021/03/12 00:18:09;;;;;;;;;;;;;;;3.33;100.00;95133.50;1022047;28;19914;-66
2021/03/12 00:18:40;;;;;;;;;;;;;;;3.32;100.00;95132.72;1019344;29;20409;-64
2021/03/12 00:19:11;;;;;;;;;;;;;;;3.30;100.00;95134.75;1015517;29;19907;-67
2021/03/12 00:19:41;;;;;;;;;;;;;;;3.26;100.00;95133.66;1019355;29;19970;-65
2021/03/12 00:20:13;;;;;;;;;;;;;;;3.24;100.00;95131.28;1018710;28;20380;-65
2021/03/12 00:20:43;;;;;;;;;;;;;;;3.26;100.00;95125.88;1022794;28;19913;-64
2021/03/12 00:21:14;;;;;;;;;;;;;;;3.24;100.00;95122.72;1028288;28;20371;-66
2021/03/12 00:21:44;;;;;;;;;;;;;;;3.26;100.00;95136.25;1031376;28;20386;-65
2021/03/12 00:22:14;;;;;;;;;;;;;;;3.27;100.00;95130.81;1022973;28;19918;-67
2021/03/12 00:22:45;;;;;;;;;;;;;;;3.26;100.00;95131.84;1023120;28;20367;-65
2021/03/12 00:23:15;;;;;;;;;;;;;;;3.27;100.00;95128.22;1023241;29;20408;-65
2021/03/12 00:23:45;;;;;;;;;;;;;;;3.26;100.00;95141.44;1023467;29;19919;-67
2021/03/12 00:24:16;;;;;;;;;;;;;;;3.26;100.00;95144.81;1028785;28;19961;-68
2021/03/12 00:24:46;;;;;;;;;;;;;;;3.25;100.00;95153.59;1030191;28;20450;-65
2021/03/12 00:25:17;;;;;;;;;;;;;;;3.27;100.00;95155.94;1027565;28;19918;-65
2021/03/12 00:25:47;;;;;;;;;;;;;;;3.27;100.00;95156.72;1027918;28;19918;-65
2021/03/12 00:26:18;;;;;;;;;;;;;;;3.26;100.00;95159.56;1031061;28;19921;-65
2021/03/12 00:26:48;;;;;;;;;;;;;;;3.26;100.00;95149.19;1031180;28;19914;-66
2021/03/12 00:27:18;;;;;;;;;;;;;;;3.27;100.00;95150.75;1031108;28;19924;-65
2021/03/12 00:27:49;;;;;;;;;;;;;;;3.26;100.00;95155.16;1031151;28;20579;-64
2021/03/12 00:28:19;;;;;;;;;;;;;;;3.27;100.00;95150.75;1035081;28;19978;-64
2021/03/12 00:28:49;;;;;;;;;;;;;;;3.27;100.00;95155.94;1035456;28;19952;-66
2021/03/12 00:29:20;;;;;;;;;;;;;;;3.28;100.00;95157.53;1034282;28;19929;-66
2021/03/12 00:29:50;;;;;;;;;;;;;;;3.26;100.00;95159.56;1031742;28;19920;-66
2021/03/12 00:30:20;;;;;;;;;;;;;;;3.27;100.00;95161.13;1031493;28;20387;-65
2021/03/12 00:30:51;;;;;;;;;;;;;;;3.27;100.00;95154.13;1030417;28;20601;-66
2021/03/12 00:31:21;;;;;;;;;;;;;;;3.29;100.00;95138.38;1030219;28;19921;-65
2021/03/12 00:31:51;;;;;;;;;;;;;;;3.27;100.00;95145.59;1025449;28;19957;-65
2021/03/12 00:32:22;;;;;;;;;;;;;;;3.26;100.00;95134.44;1027124;28;19958;-66
2021/03/12 00:32:52;;;;;;;;;;;;;;;3.26;100.00;95126.66;1029415;28;19921;-67
2021/03/12 00:33:23;;;;;;;;;;;;;;;3.27;100.00;95130.03;1029025;28;19914;-66
2021/03/12 00:33:53;;;;;;;;;;;;;;;3.26;100.00;95134.44;1025902;28;19914;-65
2021/03/12 00:34:23;;;;;;;;;;;;;;;3.24;100.00;95139.03;1027250;28;19977;-66
2021/03/12 00:34:54;;;;;;;;;;;;;;;3.20;100.00;95124.97;1026946;28;19918;-66
2021/03/12 00:35:24;;;;;;;;;;;;;;;3.24;100.00;95122.72;1027233;28;19930;-66
2021/03/12 00:35:54;;;;;;;;;;;;;;;3.25;100.00;95132.06;1031371;28;20391;-66
2021/03/12 00:36:24;;;;;;;;;;;;;;;3.24;100.00;95126.09;1031026;28;19914;-65
2021/03/12 00:36:55;;;;;;;;;;;;;;;3.22;100.00;95127.31;1027001;28;19918;-66
2021/03/12 00:37:25;;;;;;;;;;;;;;;3.23;100.00;95124.53;1027340;28;19953;-66
2021/03/12 00:37:55;;;;;;;;;;;;;;;3.25;100.00;95129.47;1023903;28;19926;-65
2021/03/12 00:38:26;;;;;;;;;;;;;;;3.24;100.00;95120.13;1023187;28;21292;-66
2021/03/12 00:38:56;;;;;;;;;;;;;;;3.23;100.00;95121.16;1027092;28;19941;-66
2021/03/12 00:39:27;;;;;;;;;;;;;;;3.23;100.00;95118.56;1026781;28;19925;-67
2021/03/12 00:39:57;;;;;;;;;;;;;;;3.22;100.00;95122.94;1030718;28;19924;-65
2021/03/12 00:40:34;;;;;;;;;;;;;;;3.23;100.00;95128.91;1027622;28;19925;-65
2021/03/12 00:41:05;;;;;;;;;;;;;;;3.21;100.00;95110.22;1026949;28;20415;-66
2021/03/12 00:41:35;;;;;;;;;;;;;;;3.18;100.00;95128.81;1034789;28;19973;-65
2021/03/12 00:42:07;;;;;;;;;;;;;;;3.19;100.00;95130.41;1031370;28;19914;-65
2021/03/12 00:42:37;;;;;;;;;;;;;;;3.22;100.00;95127.31;1022818;29;19929;-65
2021/03/12 00:43:08;;;;;;;;;;;;;;;3.22;100.00;95128.13;1018709;29;20026;-65
2021/03/12 00:43:38;;;;;;;;;;;;;;;3.23;100.00;95144.47;1015403;29;19951;-68
2021/03/12 00:44:08;;;;;;;;;;;;;;;3.24;100.00;95130.50;1019622;29;19903;-66
2021/03/12 00:44:39;;;;;;;;;;;;;;;3.24;100.00;95123.50;1020202;29;19911;-66
2021/03/12 00:45:10;;;;;;;;;;;;;;;3.25;100.00;95126.88;1020690;29;19954;-66
2021/03/12 00:45:41;;;;;;;;;;;;;;;3.23;100.00;95134.88;1027180;28;19906;-66
2021/03/12 00:46:11;;;;;;;;;;;;;;;3.22;100.00;95141.09;1023137;28;19906;-62
2021/03/12 00:46:41;;;;;;;;;;;;;;;3.22;100.00;95142.88;1022132;28;20006;-66
2021/03/12 00:47:11;;;;;;;;;;;;;;;3.21;100.00;95141.31;1026324;28;19949;-65
2021/03/12 00:47:42;;;;;;;;;;;;;;;3.21;100.00;95144.69;1018987;29;19915;-66
2021/03/12 00:48:12;;;;;;;;;;;;;;;3.22;100.00;95142.88;1025491;28;19910;-65
2021/03/12 00:48:43;;;;;;;;;;;;;;;2.97;100.00;95105.09;1026934;28;19919;-65
2021/03/12 00:49:13;;;;;;;;;;;;;;;3.21;100.00;95136.13;1026581;28;19991;-66
2021/03/12 00:49:43;;;;;;;;;;;;;;;3.20;100.00;95150.13;1031247;28;19911;-67
2021/03/12 00:50:14;;;;;;;;;;;;;;;3.21;100.00;95159.47;1031133;28;19910;-63
2021/03/12 00:50:44;;;;;;;;;;;;;;;3.20;100.00;95147.53;1026138;28;19942;-65
2021/03/12 00:51:15;;;;;;;;;;;;;;;3.20;100.00;95152.72;1025648;28;19910;-66
2021/03/12 00:51:45;;;;;;;;;;;;;;;3.22;100.00;95150.66;1022443;28;20455;-65
2021/03/12 00:52:15;;;;;;;;;;;;;;;3.21;100.00;95154.28;1022988;28;20396;-65
2021/03/12 00:52:46;;;;;;;;;;;;;;;3.21;100.00;95151.69;1019229;29;19907;-66
2021/03/12 00:53:16;;;;;;;;;;;;;;;3.21;100.00;95151.69;1022927;29;19911;-66
2021/03/12 00:53:46;;;;;;;;;;;;;;;3.21;100.00;95151.69;1026498;28;19960;-65
2021/03/12 00:54:17;;;;;;;;;;;;;;;3.23;100.00;95149.66;1022891;28;19914;-66
2021/03/12 00:54:47;;;;;;;;;;;;;;;3.24;100.00;95153.81;1023178;29;20332;-65
2021/03/12 00:55:17;;;;;;;;;;;;;;;3.23;100.00;95149.66;1027071;28;19910;-67
2021/03/12 00:55:48;;;;;;;;;;;;;;;3.23;100.00;95157.44;1026870;28;20300;-66
2021/03/12 00:56:18;;;;;;;;;;;;;;;3.21;100.00;95147.28;1030276;28;20005;-66
2021/03/12 00:56:48;;;;;;;;;;;;;;;3.21;100.00;95144.69;1031226;28;19914;-66
2021/03/12 00:57:19;;;;;;;;;;;;;;;3.22;100.00;95148.06;1031140;28;19910;-65
2021/03/12 00:57:49;;;;;;;;;;;;;;;3.24;100.00;95140.84;1030077;28;19949;-66
2021/03/12 00:58:20;;;;;;;;;;;;;;;3.23;100.00;95152.25;1027251;28;20470;-65
2021/03/12 00:58:50;;;;;;;;;;;;;;;3.22;100.00;95148.06;1025990;28;19922;-65
2021/03/12 00:59:21;;;;;;;;;;;;;;;3.19;100.00;95144.16;1026966;28;19970;-66
2021/03/12 00:59:51;;;;;;;;;;;;;;;3.19;100.00;95144.16;1021864;29;19926;-66
2021/03/12 01:00:25;;;;;;;;;;;;;;;3.16;100.00;95146.41;1021184;29;20381;-64
2021/03/12 01:00:55;;;;;;;;;;;;;;;3.16;100.00;95144.59;1026604;28;19914;-65
2021/03/12 01:01:26;;;;;;;;;;;;;;;3.15;100.00;95143.00;1026721;28;19941;-63
2021/03/12 01:01:56;;;;;;;;;;;;;;;3.14;100.00;95149.22;1023033;29;20384;-65
2021/03/12 01:02:26;;;;;;;;;;;;;;;3.13;100.00;95146.88;1023287;29;19921;-66
2021/03/12 01:02:58;;;;;;;;;;;;;;;3.14;100.00;95151.03;1022491;28;19956;-68
2021/03/12 01:03:28;;;;;;;;;;;;;;;3.18;100.00;95141.78;1023465;28;19997;-66
2021/03/12 01:03:59;;;;;;;;;;;;;;;3.17;100.00;95142.81;1027026;28;19984;-69
2021/03/12 01:04:29;;;;;;;;;;;;;;;3.17;100.00;95140.22;1027149;28;19922;-65
2021/03/12 01:04:59;;;;;;;;;;;;;;;3.18;100.00;95141.78;1022597;28;19942;-65
2021/03/12 01:05:29;;;;;;;;;;;;;;;3.15;100.00;95137.03;1020776;29;19914;-65
2021/03/12 01:06:00;;;;;;;;;;;;;;;3.17;100.00;95142.81;1018976;29;19922;-65
2021/03/12 01:06:30;;;;;;;;;;;;;;;3.16;100.00;95149.00;1012919;29;20324;-66
2021/03/12 01:07:00;;;;;;;;;;;;;;;3.22;100.00;95137.69;1015325;29;19933;-65
2021/03/12 01:07:31;;;;;;;;;;;;;;;3.20;100.00;95140.53;1018507;29;20046;-66
2021/03/12 01:08:01;;;;;;;;;;;;;;;3.20;100.00;95144.94;1022284;28;19946;-65
2021/03/12 01:08:31;;;;;;;;;;;;;;;3.22;100.00;95143.69;1023067;28;19958;-65
2021/03/12 01:09:02;;;;;;;;;;;;;;;3.23;100.00;95139.28;1023046;29;19946;-66
2021/03/12 01:09:32;;;;;;;;;;;;;;;3.22;100.00;95132.50;1018908;29;20554;-66
2021/03/12 01:10:03;;;;;;;;;;;;;;;3.20;100.00;95139.75;1018653;29;19973;-65
2021/03/12 01:10:33;;;;;;;;;;;;;;;3.18;100.00;95131.41;1014709;29;20031;-65
2021/03/12 01:11:03;;;;;;;;;;;;;;;3.19;100.00;95122.63;1019236;29;19947;-65
2021/03/12 01:11:34;;;;;;;;;;;;;;;3.17;100.00;95135.03;1018641;29;19926;-65
2021/03/12 01:12:04;;;;;;;;;;;;;;;3.15;100.00;95122.28;1012219;29;20034;-67
2021/03/12 01:12:35;;;;;;;;;;;;;;;3.16;100.00;95123.88;1015196;29;20391;-65
2021/03/12 01:13:05;;;;;;;;;;;;;;;3.16;100.00;95129.06;1015481;29;20429;-67
2021/03/12 01:13:35;;;;;;;;;;;;;;;3.12;100.00;95130.53;1018857;28;19914;-66
2021/03/12 01:14:06;;;;;;;;;;;;;;;3.17;100.00;95140.22;1019705;29;19922;-66
2021/03/12 01:14:36;;;;;;;;;;;;;;;3.15;100.00;95131.88;1011308;29;19918;-66
2021/03/12 01:15:07;;;;;;;;;;;;;;;3.15;100.00;95131.88;1013495;29;19915;-66
2021/03/12 01:15:38;;;;;;;;;;;;;;;3.16;100.00;95130.88;1019151;29;19957;-66
2021/03/12 01:16:08;;;;;;;;;;;;;;;3.18;100.00;95128.81;1023088;29;19922;-66
2021/03/12 01:16:38;;;;;;;;;;;;;;;3.23;100.00;95129.69;1022462;28;19922;-66
2021/03/12 01:17:09;;;;;;;;;;;;;;;3.22;100.00;95132.50;1023149;29;19934;-65
2021/03/12 01:17:39;;;;;;;;;;;;;;;3.21;100.00;95136.91;1023083;29;19915;-66
2021/03/12 01:18:10;;;;;;;;;;;;;;;3.22;100.00;95137.69;1027191;28;19919;-65
2021/03/12 01:18:40;;;;;;;;;;;;;;;3.20;100.00;95135.34;1026635;28;19922;-66
2021/03/12 01:19:10;;;;;;;;;;;;;;;3.22;100.00;95135.09;1031436;28;19984;-66
2021/03/12 01:19:41;;;;;;;;;;;;;;;3.20;100.00;95134.56;1031399;28;19925;-65
2021/03/12 01:20:12;;;;;;;;;;;;;;;3.20;100.00;95140.53;1026962;28;19995;-66
2021/03/12 01:20:43;;;;;;;;;;;;;;;3.22;100.00;95140.28;1026251;28;20315;-64
2021/03/12 01:21:13;;;;;;;;;;;;;;;3.27;100.00;95123.03;1027017;28;20405;-65
2021/03/12 01:21:43;;;;;;;;;;;;;;;3.28;100.00;95126.41;1026827;28;20307;-66
2021/03/12 01:22:14;;;;;;;;;;;;;;;3.28;100.00;95134.19;1026528;28;19918;-65
2021/03/12 01:22:44;;;;;;;;;;;;;;;3.28;100.00;95129.00;1023087;29;19914;-65
2021/03/12 01:23:15;;;;;;;;;;;;;;;3.28;100.00;95131.59;1023026;29;19930;-65
2021/03/12 01:23:45;;;;;;;;;;;;;;;3.28;100.00;95123.81;1019384;28;19931;-66
2021/03/12 01:24:15;;;;;;;;;;;;;;;3.30;100.00;95129.56;1023177;28;20431;-67
2021/03/12 01:24:46;;;;;;;;;;;;;;;3.28;100.00;95140.16;1027337;28;19918;-68
2021/03/12 01:25:17;;;;;;;;;;;;;;;3.29;100.00;95149.53;1028662;28;20404;-66
2021/03/12 01:25:47;;;;;;;;;;;;;;;3.29;100.00;95149.53;1031157;28;20419;-67
2021/03/12 01:26:18;;;;;;;;;;;;;;;3.29;100.00;95153.94;1031069;28;19917;-66
2021/03/12 01:26:48;;;;;;;;;;;;;;;3.30;100.00;95152.91;1026298;28;19930;-66
2021/03/12 01:27:18;;;;;;;;;;;;;;;3.29;100.00;95157.31;1019080;29;19913;-65
2021/03/12 01:27:48;;;;;;;;;;;;;;;3.28;100.00;95154.94;1019174;29;19978;-66
2021/03/12 01:28:19;;;;;;;;;;;;;;;3.31;100.00;95157.06;1015069;29;19918;-66
2021/03/12 01:28:49;;;;;;;;;;;;;;;3.27;100.00;95151.53;1019476;28;19918;-66
2021/03/12 01:29:19;;;;;;;;;;;;;;;3.27;100.00;95137.81;1024632;28;19917;-66
2021/03/12 01:29:50;;;;;;;;;;;;;;;3.28;100.00;95152.34;1019200;29;20417;-67
2021/03/12 01:30:20;;;;;;;;;;;;;;;3.29;100.00;95149.53;1019658;28;19930;-65
2021/03/12 01:30:50;;;;;;;;;;;;;;;3.27;100.00;95154.13;1018367;29;19923;-67
2021/03/12 01:31:20;;;;;;;;;;;;;;;3.28;100.00;95147.16;1012923;29;19919;-65
2021/03/12 01:31:51;;;;;;;;;;;;;;;3.33;100.00;95136.88;1016400;28;20022;-65
2021/03/12 01:32:21;;;;;;;;;;;;;;;3.32;100.00;95135.31;1019201;29;19918;-65
2021/03/12 01:32:51;;;;;;;;;;;;;;;3.33;100.00;95138.69;1015125;29;20451;-65
2021/03/12 01:33:22;;;;;;;;;;;;;;;3.32;100.00;95137.91;1019019;29;19922;-66
2021/03/12 01:33:52;;;;;;;;;;;;;;;3.32;100.00;95137.91;1012162;29;19919;-67
2021/03/12 01:34:23;;;;;;;;;;;;;;;3.30;100.00;95130.34;1015302;29;19919;-68
2021/03/12 01:34:53;;;;;;;;;;;;;;;3.31;100.00;95138.91;1019144;29;19922;-67
2021/03/12 01:35:23;;;;;;;;;;;;;;;3.31;100.00;95141.50;1022307;28;20406;-65
2021/03/12 01:35:54;;;;;;;;;;;;;;;3.30;100.00;95139.94;1022975;29;19958;-66
2021/03/12 01:36:24;;;;;;;;;;;;;;;3.30;100.00;95150.31;1027195;28;19998;-66
2021/03/12 01:36:54;;;;;;;;;;;;;;;3.31;100.00;95146.69;1022471;28;19933;-63
2021/03/12 01:37:25;;;;;;;;;;;;;;;3.34;100.00;95142.84;1014632;29;19923;-65
2021/03/12 01:37:55;;;;;;;;;;;;;;;3.35;100.00;95139.22;1019080;29;20347;-65
2021/03/12 01:38:25;;;;;;;;;;;;;;;3.31;100.00;95141.50;1019221;29;19918;-65
2021/03/12 01:38:55;;;;;;;;;;;;;;;3.32;100.00;95143.09;1021544;28;22088;-66
2021/03/12 01:39:26;;;;;;;;;;;;;;;3.33;100.00;95139.47;1027063;28;19977;-66
2021/03/12 01:39:56;;;;;;;;;;;;;;;3.33;100.00;95134.28;1027067;28;19969;-63
2021/03/12 01:40:27;;;;;;;;;;;;;;;3.35;100.00;95137.41;1026333;28;19924;-67
2021/03/12 01:40:57;;;;;;;;;;;;;;;3.34;100.00;95135.06;1031222;28;20213;-66
2021/03/12 01:41:28;;;;;;;;;;;;;;;3.34;100.00;95133.25;1026716;28;19924;-67
2021/03/12 01:41:58;;;;;;;;;;;;;;;3.33;100.00;95129.09;1023062;29;19914;-66
2021/03/12 01:42:28;;;;;;;;;;;;;;;3.33;100.00;95130.91;1019498;29;19957;-66
2021/03/12 01:42:59;;;;;;;;;;;;;;;3.33;100.00;95131.69;1023180;28;20400;-65
2021/03/12 01:43:32;;;;;;;;;;;;;;;3.33;100.00;95129.09;1027019;28;20327;-65
2021/03/12 01:44:03;;;;;;;;;;;;;;;3.28;100.00;95129.78;1029769;28;20445;-65
2021/03/12 01:44:34;;;;;;;;;;;;;;;3.29;100.00;95133.97;1030989;28;19914;-67
2021/03/12 01:45:05;;;;;;;;;;;;;;;3.24;100.00;95131.28;1031094;28;19937;-66
2021/03/12 01:45:37;;;;;;;;;;;;;;;3.24;100.00;95135.66;1026341;28;20713;-67
2021/03/12 01:46:07;;;;;;;;;;;;;;;3.22;100.00;95135.91;1031056;28;19918;-64
2021/03/12 01:46:37;;;;;;;;;;;;;;;3.25;100.00;95138.06;1031005;28;19941;-66
2021/03/12 01:47:08;;;;;;;;;;;;;;;3.28;100.00;95134.19;1031039;28;19918;-65
2021/03/12 01:47:38;;;;;;;;;;;;;;;3.26;100.00;95133.66;1031315;28;19948;-65
2021/03/12 01:48:09;;;;;;;;;;;;;;;3.26;100.00;95133.66;1031211;28;20007;-65
2021/03/12 01:48:40;;;;;;;;;;;;;;;3.28;100.00;95131.59;1026983;28;19945;-66
2021/03/12 01:49:10;;;;;;;;;;;;;;;3.35;100.00;95140.00;1030234;28;19961;-65
2021/03/12 01:49:40;;;;;;;;;;;;;;;3.34;100.00;95140.25;1026746;28;19921;-65
2021/03/12 01:50:11;;;;;;;;;;;;;;;3.34;100.00;95140.25;1027085;28;20339;-67
2021/03/12 01:50:43;;;;;;;;;;;;;;;3.30;100.00;95139.94;1025851;28;19907;-67
2021/03/12 01:51:13;;;;;;;;;;;;;;;3.31;100.00;95146.69;1019364;29;19951;-65
2021/03/12 01:51:44;;;;;;;;;;;;;;;3.32;100.00;95137.91;1021074;29;19922;-66
2021/03/12 01:52:14;;;;;;;;;;;;;;;3.36;100.00;95136.44;1019741;28;19915;-66
2021/03/12 01:52:44;;;;;;;;;;;;;;;3.42;100.00;95145.06;1026936;28;19922;-65
2021/03/12 01:53:15;;;;;;;;;;;;;;;3.42;100.00;95148.47;1022967;29;20008;-66
2021/03/12 01:53:45;;;;;;;;;;;;;;;3.42;100.00;95147.66;1022941;28;20000;-66
2021/03/12 01:54:16;;;;;;;;;;;;;;;3.41;100.00;95140.91;1026773;28;19917;-67
2021/03/12 01:54:46;;;;;;;;;;;;;;;3.40;100.00;95142.72;1026908;28;20335;-65
2021/03/12 01:55:18;;;;;;;;;;;;;;;3.39;100.00;95146.34;1026946;28;20391;-65
2021/03/12 01:55:48;;;;;;;;;;;;;;;3.40;100.00;95150.50;1026087;28;20013;-66
2021/03/12 01:56:18;;;;;;;;;;;;;;;3.39;100.00;95148.94;1026909;28;19921;-67
2021/03/12 01:56:49;;;;;;;;;;;;;;;3.44;100.00;95143.03;1023332;28;19984;-66
2021/03/12 01:57:19;;;;;;;;;;;;;;;3.42;100.00;95152.84;1027017;28;19910;-65
2021/03/12 01:57:49;;;;;;;;;;;;;;;3.44;100.00;95145.63;1030919;28;19945;-66
2021/03/12 01:58:20;;;;;;;;;;;;;;;3.45;100.00;95149.78;1026919;28;20461;-67
2021/03/12 01:58:50;;;;;;;;;;;;;;;3.45;100.00;95152.38;1029072;28;19910;-68
2021/03/12 01:59:20;;;;;;;;;;;;;;;3.45;100.00;95150.56;1030660;28;19918;-67
2021/03/12 01:59:51;;;;;;;;;;;;;;;3.47;100.00;95155.53;1030993;28;19920;-65
2021/03/12 02:00:21;;;;;;;;;;;;;;;3.49;100.00;95154.28;1034803;28;19913;-66
2021/03/12 02:00:52;;;;;;;;;;;;;;;3.49;100.00;95153.50;1029597;28;20386;-65
2021/03/12 02:01:22;;;;;;;;;;;;;;;3.50;100.00;95150.69;1024834;28;20523;-66
2021/03/12 02:01:52;;;;;;;;;;;;;;;3.51;100.00;95147.06;1015051;29;19927;-65
2021/03/12 02:02:23;;;;;;;;;;;;;;;3.53;100.00;95155.41;1014967;29;19923;-66
2021/03/12 02:02:54;;;;;;;;;;;;;;;3.52;100.00;95158.22;1021579;28;19914;-65
2021/03/12 02:03:28;;;;;;;;;;;;;;;3.56;100.00;95148.19;1027205;28;19915;-65
2021/03/12 02:03:58;;;;;;;;;;;;;;;3.56;100.00;95153.38;1031006;28;20523;-66
2021/03/12 02:04:29;;;;;;;;;;;;;;;3.60;100.00;95147.47;1030514;28;19948;-66
2021/03/12 02:04:59;;;;;;;;;;;;;;;3.59;100.00;95152.88;1030951;28;19917;-65
2021/03/12 02:05:29;;;;;;;;;;;;;;;3.56;100.00;95148.97;1026982;28;19925;-66
2021/03/12 02:06:00;;;;;;;;;;;;;;;3.52;100.00;95143.47;1030461;28;20004;-67
2021/03/12 02:06:30;;;;;;;;;;;;;;;3.53;100.00;95150.22;1030888;28;20445;-66
2021/03/12 02:07:00;;;;;;;;;;;;;;;3.54;100.00;95151.00;1030962;28;19929;-64
2021/03/12 02:07:30;;;;;;;;;;;;;;;3.53;100.00;95150.22;1026641;28;20438;-66
2021/03/12 02:08:01;;;;;;;;;;;;;;;3.53;100.00;95152.81;1030882;28;19925;-65
2021/03/12 02:08:31;;;;;;;;;;;;;;;3.55;100.00;95157.75;1026932;28;19918;-66
2021/03/12 02:09:02;;;;;;;;;;;;;;;3.59;100.00;95160.66;1026983;28;19922;-65
2021/03/12 02:09:32;;;;;;;;;;;;;;;3.62;100.00;95149.81;1030498;28;19914;-66
2021/03/12 02:10:03;;;;;;;;;;;;;;;3.59;100.00;95150.28;1026950;28;19918;-65
2021/03/12 02:10:34;;;;;;;;;;;;;;;3.60;100.00;95154.47;1026161;28;20036;-64
2021/03/12 02:11:04;;;;;;;;;;;;;;;3.58;100.00;95151.31;1022409;28;19914;-66
2021/03/12 02:11:34;;;;;;;;;;;;;;;3.56;100.00;95153.38;1018305;29;20296;-65
2021/03/12 02:12:28;;;;;;;;;;;;;;;3.59;100.00;95155.47;1018975;29;20381;-66
2021/03/12 02:13:16;;;;;;;;;;;;;;;3.56;100.00;95150.78;1018624;29;19958;-66
2021/03/12 02:13:54;;;;;;;;;;;;;;;3.57;100.00;95153.13;1024465;28;19917;-65
2021/03/12 02:14:34;;;;;;;;;;;;;;;3.53;100.00;95149.44;1027907;28;20263;-66
2021/03/12 02:15:08;;;;;;;;;;;;;;;3.59;100.00;95147.69;1023105;29;19993;-64
2021/03/12 02:15:42;;;;;;;;;;;;;;;3.61;100.00;95156.81;1022860;29;19929;-65
2021/03/12 02:16:12;;;;;;;;;;;;;;;3.62;100.00;95152.41;1024352;28;19915;-65
2021/03/12 02:16:42;;;;;;;;;;;;;;;3.62;100.00;95148.03;1027774;28;19918;-66
2021/03/12 02:17:15;;;;;;;;;;;;;;;3.61;100.00;95151.63;1023078;28;19966;-65
2021/03/12 02:17:57;;;;;;;;;;;;;;;3.62;100.00;95142.84;1022997;28;19921;-67
2021/03/12 02:18:33;;;;;;;;;;;;;;;3.61;100.00;95146.44;1019057;29;19914;-67
2021/03/12 02:19:07;;;;;;;;;;;;;;;3.63;100.00;95148.81;1024146;28;19918;-66
2021/03/12 02:19:56;;;;;;;;;;;;;;;3.66;100.00;95145.78;1027127;28;19914;-64
2021/03/12 02:20:26;;;;;;;;;;;;;;;3.64;100.00;95140.00;1026082;28;19910;-65
2021/03/12 02:21:15;;;;;;;;;;;;;;;3.61;100.00;95150.84;1026063;28;20550;-66
2021/03/12 02:21:50;;;;;;;;;;;;;;;3.65;100.00;95139.78;1018880;29;20306;-65
2021/03/12 02:22:21;;;;;;;;;;;;;;;3.67;100.00;95144.75;1021106;29;20297;-65
2021/03/12 02:22:55;;;;;;;;;;;;;;;3.72;100.00;95137.03;1023980;28;19914;-66
2021/03/12 02:23:41;;;;;;;;;;;;;;;3.71;100.00;95125.09;1028256;28;19907;-66
2021/03/12 02:24:14;;;;;;;;;;;;;;;3.71;100.00;95119.91;1029715;28;19905;-64
2021/03/12 02:24:58;;;;;;;;;;;;;;;3.72;100.00;95131.84;1030320;28;19910;-65
2021/03/12 02:25:28;;;;;;;;;;;;;;;3.70;100.00;95129.50;1026954;28;19911;-65
2021/03/12 02:26:01;;;;;;;;;;;;;;;3.69;100.00;95135.72;1025049;28;19907;-65
2021/03/12 02:26:36;;;;;;;;;;;;;;;3.62;100.00;95131.66;1022609;28;19910;-66
2021/03/12 02:27:07;;;;;;;;;;;;;;;3.58;100.00;95126.16;1019763;29;19940;-66
2021/03/12 02:27:37;;;;;;;;;;;;;;;3.55;100.00;95131.81;1015909;29;20436;-66
2021/03/12 02:28:08;;;;;;;;;;;;;;;3.54;100.00;95136.22;1019274;29;19921;-65
2021/03/12 02:28:38;;;;;;;;;;;;;;;3.54;100.00;95144.00;1022821;29;19917;-66
2021/03/12 02:29:09;;;;;;;;;;;;;;;3.60;100.00;95144.88;1022861;28;19918;-65
2021/03/12 02:29:43;;;;;;;;;;;;;;;3.65;100.00;95141.59;1031155;28;20016;-65
2021/03/12 02:30:14;;;;;;;;;;;;;;;3.61;100.00;95135.28;1030781;28;19910;-64
2021/03/12 02:30:44;;;;;;;;;;;;;;;3.65;100.00;95132.00;1026232;28;19910;-64
2021/03/12 02:31:14;;;;;;;;;;;;;;;3.68;100.00;95154.09;1026822;28;19914;-64
2021/03/12 02:31:45;;;;;;;;;;;;;;;3.67;100.00;95142.16;1026249;28;19911;-64
2021/03/12 02:32:16;;;;;;;;;;;;;;;3.65;100.00;95131.19;1026876;28;19911;-65
2021/03/12 02:32:47;;;;;;;;;;;;;;;3.69;100.00;95140.09;1027091;28;19911;-66
2021/03/12 02:33:17;;;;;;;;;;;;;;;3.64;100.00;95134.81;1022553;28;19942;-65
2021/03/12 02:33:48;;;;;;;;;;;;;;;3.65;100.00;95152.75;1019083;29;19923;-66
2021/03/12 02:34:19;;;;;;;;;;;;;;;3.61;100.00;95136.06;1023232;28;19907;-65
2021/03/12 02:34:49;;;;;;;;;;;;;;;3.63;100.00;95146.22;1022982;28;19911;-65
2021/03/12 02:35:20;;;;;;;;;;;;;;;3.58;100.00;95135.75;1022864;28;20360;-65
2021/03/12 02:35:54;;;;;;;;;;;;;;;3.52;100.00;95140.06;1018970;29;19917;-66
2021/03/12 02:36:27;;;;;;;;;;;;;;;3.56;100.00;95148.19;1015875;29;19951;-65
2021/03/12 02:36:57;;;;;;;;;;;;;;;3.62;100.00;95147.22;1022196;28;20360;-65
2021/03/12 02:37:28;;;;;;;;;;;;;;;3.58;100.00;95141.72;1026818;28;19960;-65
2021/03/12 02:37:58;;;;;;;;;;;;;;;3.57;100.00;95149.75;1023280;28;19933;-65
2021/03/12 02:38:28;;;;;;;;;;;;;;;3.59;100.00;95153.69;1022685;28;19914;-66
2021/03/12 02:38:59;;;;;;;;;;;;;;;3.53;100.00;95150.22;1015064;29;19907;-65
2021/03/12 02:39:30;;;;;;;;;;;;;;;3.53;100.00;95147.63;1007354;29;20390;-65
2021/03/12 02:40:01;;;;;;;;;;;;;;;3.49;100.00;95153.50;1011953;29;19907;-65
2021/03/12 02:40:31;;;;;;;;;;;;;;;3.45;100.00;95137.59;1014469;29;19919;-64
2021/03/12 02:41:01;;;;;;;;;;;;;;;3.47;100.00;95140.75;1019191;29;19910;-64
2021/03/12 02:41:32;;;;;;;;;;;;;;;3.54;100.00;95145.81;1010712;29;20392;-64
2021/03/12 02:42:02;;;;;;;;;;;;;;;3.59;100.00;95152.88;1015606;29;19926;-65